createdAt,value
2023-03-29T00:00:15.074Z,97562.50
2023-03-29T00:02:49.119Z,97561.70
2023-03-29T00:05:19.498Z,97563.23
2023-03-29T00:07:47.656Z,97561.98
2023-03-29T00:10:16.075Z,97561.56
2023-03-29T00:12:44.218Z,97567.76
2023-03-29T00:15:12.694Z,97567.79
2023-03-29T00:17:42.177Z,97563.36
2023-03-29T00:20:10.923Z,97568.69
2023-03-29T00:22:44.143Z,97570.17
2023-03-29T00:25:12.692Z,97567.08
2023-03-29T00:27:41.007Z,97566.11
2023-03-29T00:30:10.680Z,97572.32
2023-03-29T00:32:39.291Z,97568.56
2023-03-29T00:35:07.852Z,97569.30
2023-03-29T00:37:38.376Z,97571.29
2023-03-29T00:40:09.670Z,97570.09
2023-03-29T00:42:38.124Z,97567.75
2023-03-29T00:45:12.461Z,97571.38
2023-03-29T00:47:47.540Z,97578.02
2023-03-29T00:50:22.606Z,97570.48
2023-03-29T00:53:01.016Z,97576.63
2023-03-29T00:55:43.021Z,97576.80
2023-03-29T00:58:13.218Z,97579.35
2023-03-29T01:00:47.474Z,97574.39
2023-03-29T01:03:24.748Z,97580.45
2023-03-29T01:06:02.635Z,97577.93
2023-03-29T01:08:36.272Z,97575.34
2023-03-29T01:11:25.107Z,97579.91
2023-03-29T01:14:03.756Z,97576.65
2023-03-29T01:16:33.679Z,97574.52
2023-03-29T01:19:02.558Z,97574.93
2023-03-29T01:21:33.450Z,97568.53
2023-03-29T01:24:42.249Z,97568.36
2023-03-29T01:27:33.199Z,97567.02
2023-03-29T01:30:12.289Z,97567.58
2023-03-29T01:32:45.460Z,97569.41
2023-03-29T01:35:16.417Z,97579.01
2023-03-29T01:37:51.578Z,97574.31
2023-03-29T01:40:19.973Z,97569.90
2023-03-29T01:42:51.530Z,97573.44
2023-03-29T01:45:28.511Z,97575.05
2023-03-29T01:48:38.278Z,97573.88
2023-03-29T01:51:14.590Z,97573.44
2023-03-29T01:54:04.933Z,97575.55
2023-03-29T01:56:38.742Z,97570.89
2023-03-29T01:59:28.444Z,97575.88
2023-03-29T02:02:00.258Z,97574.56
2023-03-29T02:04:34.747Z,97566.10
2023-03-29T02:07:04.656Z,97566.06
2023-03-29T02:09:32.874Z,97568.67
2023-03-29T02:12:05.961Z,97567.08
2023-03-29T02:14:33.949Z,97570.01
2023-03-29T02:17:19.679Z,97573.21
2023-03-29T02:19:51.696Z,97575.11
2023-03-29T02:22:24.059Z,97574.92
2023-03-29T02:24:53.043Z,97582.88
2023-03-29T02:27:21.894Z,97574.51
2023-03-29T02:29:51.198Z,97569.46
2023-03-29T02:32:30.418Z,97578.52
2023-03-29T02:35:01.701Z,97578.25
2023-03-29T02:37:30.466Z,97582.38
2023-03-29T02:39:58.984Z,97581.86
2023-03-29T02:42:26.951Z,97593.94
2023-03-29T02:45:02.300Z,97592.20
2023-03-29T02:47:33.594Z,97594.09
2023-03-29T02:50:01.601Z,97595.71
2023-03-29T02:52:34.298Z,97597.41
2023-03-29T02:55:03.513Z,97601.71
2023-03-29T02:57:35.764Z,97597.53
2023-03-29T03:00:05.420Z,97598.84
2023-03-29T03:02:35.634Z,97605.30
2023-03-29T03:05:08.333Z,97602.80
2023-03-29T03:07:37.424Z,97604.38
2023-03-29T03:10:07.914Z,97606.89
2023-03-29T03:12:39.255Z,97613.11
2023-03-29T03:15:08.356Z,97613.48
2023-03-29T03:17:40.240Z,97609.71
2023-03-29T03:20:13.123Z,97614.56
2023-03-29T03:22:48.967Z,97615.19
2023-03-29T03:25:21.340Z,97614.55
2023-03-29T03:27:50.438Z,97617.64
2023-03-29T03:30:21.068Z,97618.92
2023-03-29T03:32:58.276Z,97620.34
2023-03-29T03:35:46.488Z,97620.14
2023-03-29T03:38:20.222Z,97622.84
2023-03-29T03:40:56.282Z,97623.16
2023-03-29T03:43:25.189Z,97623.84
2023-03-29T03:45:53.942Z,97634.33
2023-03-29T03:48:24.684Z,97630.48
2023-03-29T03:51:13.299Z,97632.04
2023-03-29T03:53:41.695Z,97628.66
2023-03-29T03:56:16.433Z,97629.83
2023-03-29T03:59:05.349Z,97629.02
2023-03-29T04:01:43.937Z,97633.10
2023-03-29T04:04:19.790Z,97631.46
2023-03-29T04:07:13.261Z,97633.93
2023-03-29T04:09:56.704Z,97630.81
2023-03-29T04:12:45.067Z,97641.94
2023-03-29T04:15:17.981Z,97641.14
2023-03-29T04:17:56.798Z,97643.74
2023-03-29T04:20:28.447Z,97639.91
2023-03-29T04:22:56.917Z,97640.33
2023-03-29T04:25:26.273Z,97641.65
2023-03-29T04:28:14.320Z,97641.16
2023-03-29T04:31:05.463Z,97647.14
2023-03-29T04:33:41.043Z,97650.56
2023-03-29T04:36:10.653Z,97647.77
2023-03-29T04:38:43.359Z,97653.04
2023-03-29T04:41:15.363Z,97653.44
2023-03-29T04:43:56.249Z,97649.88
2023-03-29T04:46:26.886Z,97657.08
2023-03-29T04:49:03.727Z,97654.40
2023-03-29T04:51:37.220Z,97658.20
2023-03-29T04:54:07.673Z,97655.46
2023-03-29T04:56:54.751Z,97655.69
2023-03-29T04:59:37.015Z,97657.08
2023-03-29T05:02:12.435Z,97664.48
2023-03-29T05:04:42.835Z,97661.58
2023-03-29T05:07:19.533Z,97656.55
2023-03-29T05:09:49.488Z,97660.70
2023-03-29T05:12:17.864Z,97662.95
2023-03-29T05:14:57.660Z,97667.33
2023-03-29T05:17:27.494Z,97669.20
2023-03-29T05:19:58.128Z,97665.01
2023-03-29T05:22:26.478Z,97664.55
2023-03-29T05:24:54.743Z,97672.53
2023-03-29T05:27:24.114Z,97674.11
2023-03-29T05:30:02.744Z,97673.84
2023-03-29T05:32:54.700Z,97675.73
2023-03-29T05:35:29.362Z,97664.63
2023-03-29T05:37:58.453Z,97672.77
2023-03-29T05:40:27.106Z,97676.79
2023-03-29T05:43:27.719Z,97675.13
2023-03-29T05:45:56.463Z,97686.35
2023-03-29T05:48:25.894Z,97676.05
2023-03-29T05:50:55.064Z,97689.54
2023-03-29T05:53:24.496Z,97670.39
2023-03-29T05:55:52.764Z,97681.25
2023-03-29T05:58:21.929Z,97669.59
2023-03-29T06:00:50.291Z,97677.34
2023-03-29T06:03:38.659Z,97674.40
2023-03-29T06:06:07.292Z,97685.15
2023-03-29T06:08:36.185Z,97684.84
2023-03-29T06:11:10.962Z,97691.04
2023-03-29T06:14:04.814Z,97684.90
2023-03-29T06:16:34.025Z,97687.02
2023-03-29T06:19:02.558Z,97690.35
2023-03-29T06:21:32.030Z,97698.92
2023-03-29T06:24:01.564Z,97686.90
2023-03-29T06:26:35.607Z,97696.50
2023-03-29T06:29:04.362Z,97699.45
2023-03-29T06:31:32.501Z,97695.27
2023-03-29T06:34:01.603Z,97702.71
2023-03-29T06:36:51.161Z,97704.60
2023-03-29T06:39:21.373Z,97705.59
2023-03-29T06:42:12.954Z,97702.26
2023-03-29T06:45:13.476Z,97699.95
2023-03-29T06:47:42.125Z,97701.27
2023-03-29T06:50:11.878Z,97705.28
2023-03-29T06:53:00.498Z,97711.46
2023-03-29T06:55:28.842Z,97710.83
2023-03-29T06:58:00.280Z,97714.54
2023-03-29T07:00:30.967Z,97709.16
2023-03-29T07:03:20.137Z,97723.91
2023-03-29T07:05:52.252Z,97723.31
2023-03-29T07:08:22.578Z,97718.90
2023-03-29T07:10:59.974Z,97721.33
2023-03-29T07:13:30.487Z,97719.73
2023-03-29T07:15:59.331Z,97724.98
2023-03-29T07:18:47.357Z,97715.13
2023-03-29T07:21:24.375Z,97727.64
2023-03-29T07:23:52.564Z,97724.15
2023-03-29T07:26:28.687Z,97732.79
2023-03-29T07:28:58.938Z,97724.32
2023-03-29T07:31:29.546Z,97734.45
2023-03-29T07:34:11.240Z,97725.24
2023-03-29T07:36:39.704Z,97728.70
2023-03-29T07:39:13.121Z,97736.42
2023-03-29T07:41:44.704Z,97730.28
2023-03-29T07:44:14.857Z,97732.22
2023-03-29T07:46:44.653Z,97732.64
2023-03-29T07:49:12.867Z,97725.16
2023-03-29T07:51:40.928Z,97737.61
2023-03-29T07:54:12.910Z,97726.00
2023-03-29T07:57:04.845Z,97737.79
2023-03-29T07:59:41.434Z,97729.95
2023-03-29T08:02:14.648Z,97729.94
2023-03-29T08:04:46.225Z,97730.66
2023-03-29T08:07:21.541Z,97742.93
2023-03-29T08:10:00.502Z,97750.48
2023-03-29T08:13:03.808Z,97744.89
2023-03-29T08:15:42.197Z,97743.23
2023-03-29T08:18:17.340Z,97747.34
2023-03-29T08:20:51.024Z,97737.57
2023-03-29T08:23:19.396Z,97736.99
2023-03-29T08:26:15.952Z,97740.36
2023-03-29T08:28:45.691Z,97739.50
2023-03-29T08:31:13.930Z,97739.17
2023-03-29T08:33:44.581Z,97741.42
2023-03-29T08:36:31.410Z,97741.35
2023-03-29T08:39:05.914Z,97744.15
2023-03-29T08:44:33.967Z,97752.14
2023-03-29T08:47:23.251Z,97746.26
2023-03-29T08:49:53.505Z,97751.34
2023-03-29T08:52:40.088Z,97753.63
2023-03-29T08:55:40.240Z,97745.96
2023-03-29T08:58:41.618Z,97738.73
2023-03-29T09:01:11.497Z,97737.00
2023-03-29T09:04:11.449Z,97750.67
2023-03-29T09:06:52.991Z,97742.69
2023-03-29T09:09:34.134Z,97741.86
2023-03-29T09:12:50.381Z,97744.27
2023-03-29T09:15:24.606Z,97740.25
2023-03-29T09:18:24.527Z,97739.09
2023-03-29T09:21:01.522Z,97747.84
2023-03-29T09:23:36.144Z,97734.15
2023-03-29T09:26:41.115Z,97734.84
2023-03-29T09:29:50.279Z,97730.04
2023-03-29T09:32:24.397Z,97731.27
2023-03-29T09:35:18.863Z,97725.98
2023-03-29T09:37:48.067Z,97727.86
2023-03-29T09:40:19.694Z,97734.37
2023-03-29T09:42:58.884Z,97734.27
2023-03-29T09:45:27.991Z,97740.65
2023-03-29T09:48:03.442Z,97736.20
2023-03-29T09:50:43.413Z,97733.25
2023-03-29T09:53:12.026Z,97732.27
2023-03-29T09:55:47.169Z,97737.39
2023-03-29T09:58:36.158Z,97735.86
2023-03-29T10:01:08.750Z,97738.20
2023-03-29T10:03:39.364Z,97736.89
2023-03-29T10:06:18.756Z,97730.98
2023-03-29T10:08:55.060Z,97730.85
2023-03-29T10:11:30.497Z,97740.92
2023-03-29T10:14:04.507Z,97734.47
2023-03-29T10:16:39.118Z,97741.04
2023-03-29T10:19:34.967Z,97727.71
2023-03-29T10:22:16.881Z,97739.89
2023-03-29T10:24:49.948Z,97727.89
2023-03-29T10:27:20.902Z,97734.41
2023-03-29T10:29:50.907Z,97734.40
2023-03-29T10:32:23.084Z,97736.29
2023-03-29T10:34:52.125Z,97739.59
2023-03-29T10:37:21.310Z,97725.81
2023-03-29T10:39:49.498Z,97732.45
2023-03-29T10:42:19.634Z,97729.11
2023-03-29T10:44:55.495Z,97726.41
2023-03-29T10:47:23.785Z,97729.53
2023-03-29T10:49:56.708Z,97727.34
2023-03-29T10:52:25.308Z,97723.07
2023-03-29T10:54:54.958Z,97710.38
2023-03-29T10:57:49.823Z,97708.30
2023-03-29T11:00:24.348Z,97714.55
2023-03-29T11:03:08.842Z,97713.11
2023-03-29T11:06:08.299Z,97715.61
2023-03-29T11:08:58.599Z,97710.67
2023-03-29T11:11:33.019Z,97718.73
2023-03-29T11:14:28.010Z,97710.86
2023-03-29T11:17:07.195Z,97704.31
2023-03-29T11:19:56.686Z,97704.36
2023-03-29T11:22:56.363Z,97698.89
2023-03-29T11:25:31.189Z,97696.66
2023-03-29T11:28:12.147Z,97689.58
2023-03-29T11:31:16.281Z,97699.10
2023-03-29T11:34:03.175Z,97689.04
2023-03-29T11:36:35.723Z,97691.59
2023-03-29T11:39:09.656Z,97694.36
2023-03-29T11:41:39.864Z,97691.68
2023-03-29T11:44:15.228Z,97686.27
2023-03-29T11:46:46.882Z,97696.13
2023-03-29T11:49:22.433Z,97698.98
2023-03-29T11:52:11.799Z,97698.66
2023-03-29T11:54:48.096Z,97692.48
2023-03-29T11:57:24.698Z,97692.20
2023-03-29T11:59:58.619Z,97692.77
2023-03-29T12:02:48.217Z,97695.32
2023-03-29T12:05:21.122Z,97697.15
2023-03-29T12:08:02.364Z,97694.79
2023-03-29T12:10:42.968Z,97700.07
2023-03-29T12:13:32.556Z,97697.71
2023-03-29T12:16:20.122Z,97706.29
2023-03-29T12:18:49.884Z,97701.92
2023-03-29T12:21:22.951Z,97713.29
2023-03-29T12:23:52.945Z,97702.23
2023-03-29T12:26:43.076Z,97700.95
2023-03-29T12:29:49.018Z,97698.16
2023-03-29T12:32:26.596Z,97700.89
2023-03-29T12:35:34.378Z,97704.25
2023-03-29T12:38:23.044Z,97700.37
2023-03-29T12:41:19.547Z,97697.56
2023-03-29T12:44:10.242Z,97694.91
2023-03-29T12:46:52.127Z,97691.86
2023-03-29T12:49:32.082Z,97694.27
2023-03-29T12:52:00.625Z,97701.11
2023-03-29T12:54:31.998Z,97699.58
2023-03-29T12:57:01.291Z,97701.33
2023-03-29T12:59:40.695Z,97698.55
2023-03-29T13:02:15.339Z,97706.98
2023-03-29T13:04:47.053Z,97697.63
2023-03-29T13:07:27.644Z,97699.36
2023-03-29T13:10:04.029Z,97712.29
2023-03-29T13:12:35.381Z,97691.60
2023-03-29T13:15:18.361Z,97694.48
2023-03-29T13:18:03.569Z,97701.92
2023-03-29T13:20:46.166Z,97691.71
2023-03-29T13:23:33.462Z,97692.37
2023-03-29T13:26:19.122Z,97690.61
2023-03-29T13:29:05.742Z,97685.34
2023-03-29T13:31:40.520Z,97692.98
2023-03-29T13:34:43.047Z,97694.23
2023-03-29T13:37:38.022Z,97685.11
2023-03-29T13:40:32.127Z,97685.15
2023-03-29T13:43:19.293Z,97687.36
2023-03-29T13:45:59.357Z,97701.19
2023-03-29T13:48:30.131Z,97700.27
2023-03-29T13:51:05.221Z,97690.59
2023-03-29T13:53:37.442Z,97699.55
2023-03-29T13:56:06.589Z,97699.02
2023-03-29T13:58:52.659Z,97701.13
2023-03-29T14:02:00.754Z,97703.38
2023-03-29T14:04:33.311Z,97696.53
2023-03-29T14:07:01.324Z,97700.73
2023-03-29T14:09:30.540Z,97702.23
2023-03-29T14:12:01.670Z,97701.93
2023-03-29T14:14:30.781Z,97703.84
2023-03-29T14:17:01.616Z,97702.50
2023-03-29T14:19:35.579Z,97702.45
2023-03-29T14:22:09.268Z,97703.95
2023-03-29T14:24:40.494Z,97703.46
2023-03-29T14:27:11.469Z,97697.70
2023-03-29T14:29:39.936Z,97696.25
2023-03-29T14:32:10.651Z,97703.66
2023-03-29T14:34:39.778Z,97708.00
2023-03-29T14:37:10.733Z,97710.51
2023-03-29T14:39:38.834Z,97709.59
2023-03-29T14:42:12.896Z,97710.54
2023-03-29T14:44:41.484Z,97705.70
2023-03-29T14:47:09.456Z,97708.11
2023-03-29T14:49:39.056Z,97703.81
2023-03-29T14:52:07.307Z,97706.14
2023-03-29T14:54:36.953Z,97709.69
2023-03-29T14:57:09.034Z,97715.79
2023-03-29T14:59:38.599Z,97714.74
2023-03-29T15:02:23.107Z,97715.13
2023-03-29T15:04:57.294Z,97713.47
2023-03-29T15:07:27.134Z,97706.25
2023-03-29T15:09:56.688Z,97715.48
2023-03-29T15:12:24.607Z,97708.14
2023-03-29T15:14:53.655Z,97710.43
2023-03-29T15:17:28.076Z,97702.90
2023-03-29T15:20:11.067Z,97703.17
2023-03-29T15:23:13.210Z,97698.21
2023-03-29T15:25:58.528Z,97705.58
2023-03-29T15:28:34.048Z,97707.41
2023-03-29T15:31:08.160Z,97708.27
2023-03-29T15:33:38.650Z,97715.63
2023-03-29T15:36:08.460Z,97705.27
2023-03-29T15:41:10.938Z,97710.03
2023-03-29T15:43:39.320Z,97709.84
2023-03-29T15:46:07.747Z,97711.39
2023-03-29T15:48:36.793Z,97711.81
2023-03-29T15:51:07.014Z,97713.44
2023-03-29T15:53:35.767Z,97714.31
2023-03-29T15:56:05.644Z,97719.86
2023-03-29T15:58:34.917Z,97719.38
2023-03-29T16:01:11.542Z,97715.10
2023-03-29T16:03:40.501Z,97714.52
2023-03-29T16:06:12.020Z,97720.91
2023-03-29T16:08:42.087Z,97718.02
2023-03-29T16:11:10.406Z,97732.63
2023-03-29T16:13:40.140Z,97721.14
2023-03-29T16:16:11.083Z,97724.60
2023-03-29T16:18:39.353Z,97725.03
2023-03-29T16:21:13.966Z,97727.70
2023-03-29T16:23:43.019Z,97728.14
2023-03-29T16:26:16.470Z,97729.80
2023-03-29T16:28:46.386Z,97734.19
2023-03-29T16:31:14.653Z,97743.56
2023-03-29T16:33:44.865Z,97744.02
2023-03-29T16:36:13.235Z,97745.63
2023-03-29T16:38:41.573Z,97746.14
2023-03-29T16:41:15.848Z,97746.47
2023-03-29T16:43:45.302Z,97750.47
2023-03-29T16:46:14.087Z,97753.79
2023-03-29T16:48:42.339Z,97753.78
2023-03-29T16:51:11.033Z,97752.67
2023-03-29T16:53:40.641Z,97755.91
2023-03-29T16:56:09.317Z,97757.95
2023-03-29T16:58:41.706Z,97757.64
2023-03-29T17:01:14.166Z,97756.70
2023-03-29T17:03:42.478Z,97751.14
2023-03-29T17:06:11.500Z,97758.70
2023-03-29T17:08:41.605Z,97763.91
2023-03-29T17:11:09.881Z,97766.59
2023-03-29T17:13:40.883Z,97767.23
2023-03-29T17:16:09.406Z,97768.64
2023-03-29T17:18:38.854Z,97770.10
2023-03-29T17:21:07.422Z,97773.09
2023-03-29T17:23:35.774Z,97777.13
2023-03-29T17:26:05.238Z,97780.77
2023-03-29T17:28:34.641Z,97783.02
2023-03-29T17:31:08.053Z,97786.58
2023-03-29T17:33:37.498Z,97788.73
2023-03-29T17:36:07.196Z,97788.96
2023-03-29T17:38:36.013Z,97792.53
2023-03-29T17:41:04.781Z,97792.88
2023-03-29T17:43:37.282Z,97794.73
2023-03-29T17:46:06.561Z,97796.80
2023-03-29T17:48:34.809Z,97796.84
2023-03-29T17:51:03.000Z,97799.90
2023-03-29T17:53:31.494Z,97804.57
2023-03-29T17:55:59.503Z,97807.74
2023-03-29T17:58:27.944Z,97808.85
2023-03-29T18:00:56.492Z,97810.36
2023-03-29T18:03:27.331Z,97815.34
2023-03-29T18:05:57.113Z,97814.38
2023-03-29T18:08:25.089Z,97818.00
2023-03-29T18:10:53.493Z,97816.64
2023-03-29T18:13:25.606Z,97821.38
2023-03-29T18:15:56.838Z,97821.73
2023-03-29T18:18:25.801Z,97824.21
2023-03-29T18:20:54.038Z,97824.16
2023-03-29T18:23:22.282Z,97828.10
2023-03-29T18:25:51.122Z,97831.58
2023-03-29T18:28:20.018Z,97833.34
2023-03-29T18:30:51.846Z,97833.75
2023-03-29T18:33:21.135Z,97835.46
2023-03-29T18:35:51.756Z,97835.44
2023-03-29T18:38:21.401Z,97836.52
2023-03-29T18:40:50.192Z,97835.41
2023-03-29T18:43:18.611Z,97830.88
2023-03-29T18:45:47.617Z,97833.31
2023-03-29T18:48:15.973Z,97832.80
2023-03-29T18:50:47.329Z,97835.71
2023-03-29T18:53:16.981Z,97838.44
2023-03-29T18:55:46.258Z,97839.76
2023-03-29T18:58:16.186Z,97838.84
2023-03-29T19:00:45.521Z,97841.23
2023-03-29T19:03:17.120Z,97841.86
2023-03-29T19:05:45.427Z,97843.52
2023-03-29T19:08:17.462Z,97839.04
2023-03-29T19:10:47.240Z,97842.06
2023-03-29T19:13:15.463Z,97841.92
2023-03-29T19:15:47.611Z,97840.72
2023-03-29T19:18:16.344Z,97841.43
2023-03-29T19:20:44.365Z,97841.66
2023-03-29T19:23:12.549Z,97840.86
2023-03-29T19:25:40.772Z,97839.64
2023-03-29T19:28:09.489Z,97841.79
2023-03-29T19:30:37.448Z,97841.83
2023-03-29T19:33:06.145Z,97841.55
2023-03-29T19:35:35.199Z,97837.37
2023-03-29T19:38:03.562Z,97840.51
2023-03-29T19:40:32.004Z,97835.48
2023-03-29T19:43:00.298Z,97839.53
2023-03-29T19:45:30.100Z,97832.17
2023-03-29T19:48:02.573Z,97834.98
2023-03-29T19:50:32.926Z,97834.18
2023-03-29T19:53:01.687Z,97836.97
2023-03-29T19:55:29.963Z,97838.91
2023-03-29T19:57:58.263Z,97839.00
2023-03-29T20:00:26.163Z,97841.55
2023-03-29T20:02:56.780Z,97837.93
2023-03-29T20:05:25.513Z,97839.31
2023-03-29T20:07:54.486Z,97840.45
2023-03-29T20:10:22.889Z,97838.45
2023-03-29T20:12:51.296Z,97834.08
2023-03-29T20:15:19.371Z,97831.88
2023-03-29T20:17:47.987Z,97829.98
2023-03-29T20:20:16.229Z,97825.88
2023-03-29T20:22:45.360Z,97828.59
2023-03-29T20:25:14.049Z,97833.45
2023-03-29T20:27:42.864Z,97842.80
2023-03-29T20:30:11.676Z,97843.84
2023-03-29T20:32:53.496Z,97843.06
2023-03-29T20:35:22.029Z,97843.73
2023-03-29T20:37:49.981Z,97841.02
2023-03-29T20:40:18.256Z,97840.40
2023-03-29T20:42:46.421Z,97843.91
2023-03-29T20:45:18.714Z,97845.50
2023-03-29T20:47:50.497Z,97845.57
2023-03-29T20:50:20.181Z,97845.13
2023-03-29T20:52:48.576Z,97842.14
2023-03-29T20:55:22.253Z,97842.54
2023-03-29T20:58:10.233Z,97839.28
2023-03-29T21:01:21.934Z,97834.91
2023-03-29T21:03:58.152Z,97832.83
2023-03-29T21:06:26.818Z,97835.86
2023-03-29T21:08:54.775Z,97836.48
2023-03-29T21:11:26.816Z,97830.45
2023-03-29T21:13:55.178Z,97829.94
2023-03-29T21:16:25.304Z,97828.26
2023-03-29T21:18:53.631Z,97829.92
2023-03-29T21:21:22.834Z,97830.27
2023-03-29T21:23:50.914Z,97830.77
2023-03-29T21:26:19.666Z,97834.86
2023-03-29T21:28:48.797Z,97831.41
2023-03-29T21:31:17.404Z,97831.15
2023-03-29T21:33:46.137Z,97826.98
2023-03-29T21:36:14.658Z,97830.85
2023-03-29T21:38:43.022Z,97833.23
2023-03-29T21:41:12.238Z,97834.82
2023-03-29T21:43:40.425Z,97833.92
2023-03-29T21:46:08.559Z,97835.11
2023-03-29T21:48:36.926Z,97839.84
2023-03-29T21:51:06.517Z,97835.20
2023-03-29T21:53:35.072Z,97835.86
2023-03-29T21:56:03.346Z,97839.48
2023-03-29T21:58:31.703Z,97843.59
2023-03-29T22:00:59.961Z,97845.17
2023-03-29T22:03:28.963Z,97844.88
2023-03-29T22:06:00.054Z,97851.44
2023-03-29T22:08:29.062Z,97850.02
2023-03-29T22:10:57.625Z,97844.80
2023-03-29T22:13:33.145Z,97845.41
2023-03-29T22:16:03.812Z,97846.19
2023-03-29T22:18:42.178Z,97845.90
2023-03-29T22:21:14.555Z,97843.65
2023-03-29T22:23:46.226Z,97842.37
2023-03-29T22:26:15.055Z,97845.02
2023-03-29T22:28:43.544Z,97844.30
2023-03-29T22:31:14.295Z,97847.38
2023-03-29T22:33:42.277Z,97850.25
2023-03-29T22:36:16.880Z,97849.67
2023-03-29T22:38:45.526Z,97848.77
2023-03-29T22:41:14.062Z,97850.98
2023-03-29T22:43:42.940Z,97850.67
2023-03-29T22:46:13.267Z,97855.69
2023-03-29T22:48:42.183Z,97852.20
2023-03-29T22:51:10.663Z,97849.06
2023-03-29T22:53:38.729Z,97850.57
2023-03-29T22:56:07.904Z,97848.42
2023-03-29T22:58:37.109Z,97848.38
2023-03-29T23:01:06.090Z,97846.77
2023-03-29T23:03:34.984Z,97846.90
2023-03-29T23:06:04.556Z,97845.29
2023-03-29T23:08:33.284Z,97841.73
2023-03-29T23:11:03.997Z,97844.41
2023-03-29T23:13:33.724Z,97844.79
2023-03-29T23:16:03.738Z,97843.66
2023-03-29T23:18:37.856Z,97842.36
2023-03-29T23:21:08.890Z,97841.90
2023-03-29T23:23:36.995Z,97843.92
2023-03-29T23:26:08.563Z,97842.66
2023-03-29T23:28:36.788Z,97838.02
2023-03-29T23:31:14.019Z,97842.94
2023-03-29T23:33:42.933Z,97844.19
2023-03-29T23:36:15.930Z,97846.86
2023-03-29T23:38:45.984Z,97847.91
2023-03-29T23:41:14.375Z,97850.69
2023-03-29T23:43:43.732Z,97850.70
2023-03-29T23:46:15.306Z,97849.60
2023-03-29T23:48:49.178Z,97846.70
2023-03-29T23:51:18.901Z,97847.51
2023-03-29T23:53:48.010Z,97845.48
2023-03-29T23:56:21.671Z,97847.59
2023-03-29T23:58:51.810Z,97849.40
